EXS527 EGNT-LGKR
Flight info
| Callsign | EXS527 |
|---|---|
| Flight time | N/A |
| Altitude | 35000 |
| Route | GIRLI P18 GASKO Y250 KEFTE UY250 MAMUL L603 DOLAS DCT NAVPI DCT DODEN DCT NEGIX DCT DINKU M867 XERUM DCT BAVAX DCT RADIZ DCT GIMIX DCT ALIVO DCT UNIPA DCT VAKSU DCT RODON DCT LIMJA N732 PITAS |
| Aircraft | B738/M-SDE2E3FGHIRWXY/LB1 |
Departure
| Time | N/A |
|---|---|
| Airport | Newcastle International Airport (EGNT) |
Arrival
| Time | 2026-05-05 21:04 |
|---|---|
| Airport | Corfu Ioannis Kapodistrias International Airport (LGKR) |
| Time | Latitude | Longitude | Altitude | Speed | Heading |
|---|---|---|---|---|---|
| 2026-05-05 18:17 | 53.10473 | 0.37373 | 34982 ft | 452 kts | 110° |
| 2026-05-05 18:17 | 53.08513 | 0.47284 | 34984 ft | 451 kts | 110° |
| 2026-05-05 18:18 | 53.06545 | 0.57184 | 34990 ft | 451 kts | 111° |
| 2026-05-05 18:18 | 53.04561 | 0.67111 | 34988 ft | 454 kts | 111° |
| 2026-05-05 18:19 | 53.02557 | 0.77088 | 34995 ft | 455 kts | 111° |
| 2026-05-05 18:19 | 53.00542 | 0.87076 | 34985 ft | 457 kts | 111° |
| 2026-05-05 18:20 | 52.98516 | 0.97071 | 34983 ft | 457 kts | 111° |
| 2026-05-05 18:20 | 52.96407 | 1.07022 | 34980 ft | 455 kts | 113° |
| 2026-05-05 18:21 | 52.94167 | 1.16814 | 34978 ft | 454 kts | 114° |
| 2026-05-05 18:21 | 52.91919 | 1.26566 | 34971 ft | 452 kts | 114° |
| 2026-05-05 18:22 | 52.89692 | 1.36276 | 34972 ft | 450 kts | 114° |
| 2026-05-05 18:22 | 52.87455 | 1.46032 | 34969 ft | 448 kts | 114° |
| 2026-05-05 18:23 | 52.85256 | 1.55586 | 34964 ft | 447 kts | 114° |
| 2026-05-05 18:23 | 52.83022 | 1.65247 | 34966 ft | 446 kts | 114° |
| 2026-05-05 18:24 | 52.80798 | 1.74818 | 34968 ft | 446 kts | 114° |
| 2026-05-05 18:24 | 52.78568 | 1.84372 | 34964 ft | 446 kts | 114° |
| 2026-05-05 18:25 | 52.76324 | 1.93945 | 34963 ft | 447 kts | 114° |
| 2026-05-05 18:25 | 52.74068 | 2.03524 | 34950 ft | 448 kts | 114° |
| 2026-05-05 18:26 | 52.71805 | 2.13092 | 34956 ft | 448 kts | 115° |
| 2026-05-05 18:26 | 52.69538 | 2.22638 | 34957 ft | 447 kts | 115° |
| 2026-05-05 18:27 | 52.67248 | 2.32235 | 34955 ft | 446 kts | 115° |
| 2026-05-05 18:27 | 52.64986 | 2.41675 | 34952 ft | 445 kts | 115° |
| 2026-05-05 18:28 | 52.61569 | 2.55856 | 34959 ft | 443 kts | 115° |
| 2026-05-05 18:28 | 52.59290 | 2.65264 | 34947 ft | 442 kts | 115° |
| 2026-05-05 18:29 | 52.57012 | 2.74637 | 34944 ft | 440 kts | 115° |
| 2026-05-05 18:29 | 52.54711 | 2.84020 | 34945 ft | 438 kts | 117° |
| 2026-05-05 18:30 | 52.51936 | 2.92864 | 34950 ft | 434 kts | 123° |
| 2026-05-05 18:30 | 52.48965 | 3.01486 | 34939 ft | 433 kts | 123° |
| 2026-05-05 18:31 | 52.46008 | 3.10098 | 34940 ft | 432 kts | 123° |
| 2026-05-05 18:31 | 52.43081 | 3.18713 | 34931 ft | 432 kts | 123° |
| 2026-05-05 18:32 | 52.40169 | 3.27308 | 34934 ft | 432 kts | 123° |
| 2026-05-05 18:32 | 52.37702 | 3.34579 | 34934 ft | 432 kts | 123° |
| 2026-05-05 18:33 | 52.34757 | 3.43230 | 34927 ft | 432 kts | 123° |
| 2026-05-05 18:33 | 52.31822 | 3.51821 | 34918 ft | 432 kts | 123° |
| 2026-05-05 18:34 | 52.28888 | 3.60377 | 34927 ft | 432 kts | 123° |
| 2026-05-05 18:34 | 52.25922 | 3.68995 | 34926 ft | 432 kts | 123° |
| 2026-05-05 18:35 | 52.22971 | 3.77543 | 34924 ft | 433 kts | 123° |
| 2026-05-05 18:35 | 52.20027 | 3.86038 | 34920 ft | 432 kts | 123° |
| 2026-05-05 18:36 | 52.17043 | 3.94623 | 34899 ft | 432 kts | 123° |
| 2026-05-05 18:36 | 52.14080 | 4.03117 | 34910 ft | 432 kts | 123° |
| 2026-05-05 18:37 | 52.11103 | 4.11624 | 34910 ft | 432 kts | 123° |
| 2026-05-05 18:37 | 52.08121 | 4.20113 | 34901 ft | 432 kts | 123° |
| 2026-05-05 18:38 | 52.05111 | 4.28655 | 34903 ft | 432 kts | 123° |
| 2026-05-05 18:38 | 52.02116 | 4.37125 | 34884 ft | 432 kts | 123° |
| 2026-05-05 18:39 | 51.99114 | 4.45588 | 34886 ft | 432 kts | 123° |
| 2026-05-05 18:39 | 51.96106 | 4.54037 | 34884 ft | 432 kts | 123° |
| 2026-05-05 18:40 | 51.93095 | 4.62468 | 34888 ft | 432 kts | 123° |
| 2026-05-05 18:40 | 51.90076 | 4.70891 | 34881 ft | 432 kts | 123° |
| 2026-05-05 18:41 | 51.87057 | 4.79287 | 34882 ft | 431 kts | 123° |
| 2026-05-05 18:41 | 51.84032 | 4.87674 | 34870 ft | 431 kts | 123° |
| 2026-05-05 18:42 | 51.80990 | 4.96079 | 34883 ft | 430 kts | 123° |
| 2026-05-05 18:42 | 51.77967 | 5.04402 | 34882 ft | 429 kts | 124° |
| 2026-05-05 18:43 | 51.74942 | 5.12706 | 34881 ft | 429 kts | 124° |
| 2026-05-05 18:43 | 51.71914 | 5.20989 | 34881 ft | 429 kts | 124° |
| 2026-05-05 18:44 | 51.68878 | 5.29267 | 34866 ft | 429 kts | 124° |
| 2026-05-05 18:44 | 51.65840 | 5.37526 | 34868 ft | 428 kts | 124° |
| 2026-05-05 18:45 | 51.62800 | 5.45760 | 34858 ft | 427 kts | 124° |
| 2026-05-05 18:45 | 51.59764 | 5.53960 | 34862 ft | 426 kts | 124° |
| 2026-05-05 18:46 | 51.56725 | 5.62139 | 34867 ft | 425 kts | 124° |
| 2026-05-05 18:46 | 51.53669 | 5.70338 | 34858 ft | 425 kts | 124° |
| 2026-05-05 18:47 | 51.50629 | 5.78470 | 34847 ft | 425 kts | 124° |
| 2026-05-05 18:47 | 51.47587 | 5.86580 | 34862 ft | 423 kts | 124° |
| 2026-05-05 18:48 | 51.44549 | 5.94654 | 34862 ft | 422 kts | 124° |
| 2026-05-05 18:48 | 51.41514 | 6.02695 | 34862 ft | 421 kts | 124° |
| 2026-05-05 18:49 | 51.38482 | 6.10703 | 34861 ft | 420 kts | 124° |
| 2026-05-05 18:49 | 51.35425 | 6.18752 | 34857 ft | 419 kts | 124° |
| 2026-05-05 18:50 | 51.32375 | 6.26757 | 34855 ft | 418 kts | 124° |
| 2026-05-05 18:50 | 51.29343 | 6.34690 | 34858 ft | 418 kts | 124° |
| 2026-05-05 18:51 | 51.26306 | 6.42610 | 34858 ft | 418 kts | 124° |
| 2026-05-05 18:51 | 51.23269 | 6.50506 | 34859 ft | 418 kts | 124° |
| 2026-05-05 18:52 | 51.20222 | 6.58406 | 34833 ft | 418 kts | 124° |
| 2026-05-05 18:52 | 51.17301 | 6.66415 | 34801 ft | 422 kts | 114° |
| 2026-05-05 18:53 | 51.15924 | 6.75631 | 34828 ft | 427 kts | 104° |
| 2026-05-05 18:53 | 51.14926 | 6.84958 | 34831 ft | 428 kts | 103° |
| 2026-05-05 18:54 | 51.13956 | 6.94332 | 34835 ft | 429 kts | 103° |
| 2026-05-05 18:54 | 51.12992 | 7.03717 | 34831 ft | 430 kts | 103° |
| 2026-05-05 18:55 | 51.12024 | 7.13118 | 34812 ft | 431 kts | 103° |
| 2026-05-05 18:55 | 51.11211 | 7.20941 | 34834 ft | 431 kts | 103° |
| 2026-05-05 18:56 | 51.09985 | 7.30348 | 34811 ft | 425 kts | 115° |
| 2026-05-05 18:56 | 51.08650 | 7.34346 | 34840 ft | 419 kts | 128° |
| 2026-05-05 18:56 | 51.06824 | 7.37937 | 34837 ft | 416 kts | 136° |
| 2026-05-05 18:57 | 51.02660 | 7.44283 | 34817 ft | 415 kts | 137° |
| 2026-05-05 18:57 | 50.98590 | 7.50795 | 34818 ft | 415 kts | 136° |
| 2026-05-05 18:58 | 50.94545 | 7.57330 | 34805 ft | 414 kts | 136° |
| 2026-05-05 18:58 | 50.90498 | 7.63821 | 34819 ft | 414 kts | 137° |
| 2026-05-05 18:59 | 50.86446 | 7.70280 | 34817 ft | 413 kts | 137° |
| 2026-05-05 18:59 | 50.82385 | 7.76727 | 34813 ft | 413 kts | 137° |
| 2026-05-05 19:00 | 50.78263 | 7.83251 | 34810 ft | 414 kts | 137° |
| 2026-05-05 19:00 | 50.74196 | 7.89674 | 34805 ft | 413 kts | 137° |
| 2026-05-05 19:01 | 50.70072 | 7.96169 | 34785 ft | 414 kts | 137° |
| 2026-05-05 19:01 | 50.65935 | 8.02667 | 34802 ft | 414 kts | 137° |
| 2026-05-05 19:02 | 50.61855 | 8.09058 | 34825 ft | 414 kts | 137° |
| 2026-05-05 19:02 | 50.57764 | 8.15450 | 34831 ft | 414 kts | 137° |
| 2026-05-05 19:03 | 50.53649 | 8.21864 | 34825 ft | 414 kts | 137° |
| 2026-05-05 19:03 | 50.49646 | 8.28086 | 34827 ft | 415 kts | 137° |
| 2026-05-05 19:04 | 50.45531 | 8.34467 | 34827 ft | 414 kts | 137° |
| 2026-05-05 19:04 | 50.41424 | 8.40819 | 34818 ft | 414 kts | 137° |
| 2026-05-05 19:05 | 50.37314 | 8.47158 | 34823 ft | 414 kts | 137° |
| 2026-05-05 19:05 | 50.33219 | 8.53460 | 34824 ft | 413 kts | 137° |
| 2026-05-05 19:06 | 50.29112 | 8.59762 | 34818 ft | 414 kts | 137° |
| 2026-05-05 19:06 | 50.24971 | 8.66101 | 34815 ft | 414 kts | 137° |
| 2026-05-05 19:07 | 50.20856 | 8.72384 | 34810 ft | 414 kts | 137° |
| 2026-05-05 19:07 | 50.16735 | 8.78660 | 34808 ft | 414 kts | 137° |
| 2026-05-05 19:08 | 50.12608 | 8.84929 | 34812 ft | 414 kts | 137° |
| 2026-05-05 19:08 | 50.08482 | 8.91182 | 34814 ft | 414 kts | 137° |
| 2026-05-05 19:09 | 50.04342 | 8.97438 | 34814 ft | 415 kts | 137° |
| 2026-05-05 19:09 | 50.00201 | 9.03681 | 34824 ft | 415 kts | 137° |
| 2026-05-05 19:10 | 49.96023 | 9.09964 | 34830 ft | 416 kts | 137° |
| 2026-05-05 19:10 | 49.91883 | 9.16174 | 34823 ft | 416 kts | 137° |
| 2026-05-05 19:11 | 49.87709 | 9.22418 | 34829 ft | 417 kts | 137° |
| 2026-05-05 19:11 | 49.83525 | 9.28663 | 34833 ft | 417 kts | 137° |
| 2026-05-05 19:12 | 49.79333 | 9.34903 | 34829 ft | 419 kts | 137° |
| 2026-05-05 19:12 | 49.75129 | 9.41145 | 34835 ft | 420 kts | 137° |
| 2026-05-05 19:13 | 49.70903 | 9.47403 | 34833 ft | 421 kts | 137° |
| 2026-05-05 19:13 | 49.66643 | 9.53698 | 34824 ft | 421 kts | 138° |
| 2026-05-05 19:14 | 49.62404 | 9.59944 | 34836 ft | 422 kts | 138° |
| 2026-05-05 19:14 | 49.58148 | 9.66200 | 34831 ft | 422 kts | 138° |
| 2026-05-05 19:15 | 49.53898 | 9.72431 | 34829 ft | 423 kts | 138° |
| 2026-05-05 19:15 | 49.49633 | 9.78668 | 34836 ft | 423 kts | 138° |
| 2026-05-05 19:16 | 49.45364 | 9.84895 | 34830 ft | 423 kts | 138° |
| 2026-05-05 19:16 | 49.41091 | 9.91114 | 34823 ft | 423 kts | 139° |
| 2026-05-05 19:17 | 49.36808 | 9.97329 | 34839 ft | 424 kts | 139° |
| 2026-05-05 19:17 | 49.32518 | 10.03539 | 34830 ft | 424 kts | 139° |
| 2026-05-05 19:18 | 49.28223 | 10.09742 | 34827 ft | 425 kts | 139° |
| 2026-05-05 19:18 | 49.24644 | 10.14899 | 34834 ft | 425 kts | 139° |
| 2026-05-05 19:19 | 49.20301 | 10.21141 | 34850 ft | 426 kts | 139° |
| 2026-05-05 19:19 | 49.16054 | 10.27492 | 34842 ft | 427 kts | 137° |
| 2026-05-05 19:20 | 49.11891 | 10.33977 | 34871 ft | 428 kts | 137° |
| 2026-05-05 19:20 | 49.07715 | 10.40459 | 34867 ft | 429 kts | 137° |
| 2026-05-05 19:21 | 49.03512 | 10.46923 | 34873 ft | 429 kts | 138° |
| 2026-05-05 19:21 | 48.99294 | 10.53372 | 34871 ft | 430 kts | 138° |
| 2026-05-05 19:22 | 48.95030 | 10.59872 | 34841 ft | 431 kts | 139° |
| 2026-05-05 19:22 | 48.90787 | 10.66324 | 34860 ft | 432 kts | 139° |
| 2026-05-05 19:23 | 48.86471 | 10.72869 | 34872 ft | 433 kts | 139° |
| 2026-05-05 19:23 | 48.82207 | 10.79320 | 34852 ft | 433 kts | 139° |
| 2026-05-05 19:24 | 48.77929 | 10.85776 | 34841 ft | 434 kts | 140° |
| 2026-05-05 19:24 | 48.73643 | 10.92227 | 34841 ft | 434 kts | 140° |
| 2026-05-05 19:25 | 48.69356 | 10.98664 | 34830 ft | 434 kts | 140° |
| 2026-05-05 19:25 | 48.65064 | 11.05092 | 34830 ft | 434 kts | 140° |
| 2026-05-05 19:26 | 48.60764 | 11.11514 | 34829 ft | 434 kts | 140° |
| 2026-05-05 19:26 | 48.56466 | 11.17919 | 34831 ft | 434 kts | 140° |
| 2026-05-05 19:27 | 48.52171 | 11.24302 | 34824 ft | 434 kts | 141° |
| 2026-05-05 19:27 | 48.47876 | 11.30671 | 34803 ft | 433 kts | 141° |
| 2026-05-05 19:28 | 48.43578 | 11.37026 | 34825 ft | 433 kts | 141° |
| 2026-05-05 19:28 | 48.39277 | 11.43370 | 34837 ft | 433 kts | 142° |
| 2026-05-05 19:29 | 48.34974 | 11.49700 | 34832 ft | 433 kts | 142° |
| 2026-05-05 19:29 | 48.30660 | 11.56032 | 34831 ft | 434 kts | 142° |
| 2026-05-05 19:30 | 48.26257 | 11.62478 | 34831 ft | 434 kts | 142° |
| 2026-05-05 19:30 | 48.22008 | 11.68684 | 34826 ft | 434 kts | 142° |
| 2026-05-05 19:31 | 48.17655 | 11.75025 | 34831 ft | 434 kts | 142° |
| 2026-05-05 19:31 | 48.13321 | 11.81322 | 34829 ft | 434 kts | 142° |
| 2026-05-05 19:32 | 48.08982 | 11.87612 | 34840 ft | 434 kts | 142° |
| 2026-05-05 19:32 | 48.04648 | 11.93879 | 34837 ft | 434 kts | 142° |
| 2026-05-05 19:33 | 48.00305 | 12.00144 | 34827 ft | 433 kts | 141° |
| 2026-05-05 19:33 | 47.95961 | 12.06394 | 34831 ft | 434 kts | 142° |
| 2026-05-05 19:34 | 47.91610 | 12.12639 | 34838 ft | 434 kts | 142° |
| 2026-05-05 19:35 | 47.85071 | 12.21996 | 34842 ft | 435 kts | 142° |
| 2026-05-05 19:35 | 47.80702 | 12.28229 | 34840 ft | 435 kts | 142° |
| 2026-05-05 19:36 | 47.76337 | 12.34441 | 34829 ft | 435 kts | 142° |
| 2026-05-05 19:36 | 47.71960 | 12.40656 | 34837 ft | 435 kts | 142° |
| 2026-05-05 19:37 | 47.67575 | 12.46870 | 34835 ft | 436 kts | 142° |
| 2026-05-05 19:37 | 47.63188 | 12.53066 | 34828 ft | 436 kts | 142° |
| 2026-05-05 19:38 | 47.58533 | 12.58602 | 34844 ft | 431 kts | 149° |
| 2026-05-05 19:38 | 47.53668 | 12.63778 | 34814 ft | 430 kts | 149° |
| 2026-05-05 19:39 | 47.48775 | 12.68991 | 34824 ft | 431 kts | 149° |
| 2026-05-05 19:39 | 47.43930 | 12.74212 | 34838 ft | 432 kts | 148° |
| 2026-05-05 19:40 | 47.39073 | 12.79465 | 34845 ft | 433 kts | 148° |
| 2026-05-05 19:40 | 47.34181 | 12.84751 | 34859 ft | 434 kts | 148° |
| 2026-05-05 19:41 | 47.29306 | 12.90005 | 34880 ft | 434 kts | 148° |
| 2026-05-05 19:41 | 47.24423 | 12.95255 | 34886 ft | 433 kts | 148° |
| 2026-05-05 19:42 | 47.19543 | 13.00489 | 34910 ft | 435 kts | 148° |
| 2026-05-05 19:42 | 47.14632 | 13.05742 | 34883 ft | 437 kts | 148° |
| 2026-05-05 19:43 | 47.09705 | 13.11002 | 34927 ft | 439 kts | 148° |
| 2026-05-05 19:43 | 47.04762 | 13.16266 | 34911 ft | 439 kts | 148° |
| 2026-05-05 19:44 | 46.99811 | 13.21527 | 34940 ft | 439 kts | 149° |
| 2026-05-05 19:44 | 46.94856 | 13.26780 | 34935 ft | 440 kts | 148° |
| 2026-05-05 19:45 | 46.89887 | 13.32035 | 34943 ft | 441 kts | 148° |
| 2026-05-05 19:45 | 46.84912 | 13.37283 | 34966 ft | 442 kts | 148° |
| 2026-05-05 19:46 | 46.79925 | 13.42533 | 34943 ft | 441 kts | 149° |
| 2026-05-05 19:46 | 46.75798 | 13.46870 | 34951 ft | 438 kts | 149° |
| 2026-05-05 19:47 | 46.70855 | 13.52052 | 34956 ft | 438 kts | 149° |
| 2026-05-05 19:47 | 46.65909 | 13.57224 | 34970 ft | 437 kts | 149° |
| 2026-05-05 19:48 | 46.60956 | 13.62391 | 34968 ft | 438 kts | 149° |
| 2026-05-05 19:48 | 46.55987 | 13.67566 | 34965 ft | 441 kts | 149° |
| 2026-05-05 19:49 | 46.50994 | 13.72756 | 34971 ft | 442 kts | 149° |
| 2026-05-05 19:49 | 46.45997 | 13.77978 | 34975 ft | 443 kts | 149° |
| 2026-05-05 19:50 | 46.40981 | 13.83221 | 34962 ft | 445 kts | 149° |
| 2026-05-05 19:50 | 46.35948 | 13.88468 | 34979 ft | 446 kts | 149° |
| 2026-05-05 19:51 | 46.30902 | 13.93714 | 34981 ft | 447 kts | 149° |
| 2026-05-05 19:51 | 46.25838 | 13.98967 | 34996 ft | 448 kts | 149° |
| 2026-05-05 19:52 | 46.20760 | 14.04221 | 34997 ft | 449 kts | 149° |
| 2026-05-05 19:52 | 46.15673 | 14.09473 | 34990 ft | 450 kts | 149° |
| 2026-05-05 19:53 | 46.10567 | 14.14731 | 35003 ft | 451 kts | 149° |
| 2026-05-05 19:53 | 46.05445 | 14.19994 | 34995 ft | 452 kts | 149° |
| 2026-05-05 19:54 | 46.00343 | 14.25224 | 34999 ft | 454 kts | 150° |
| 2026-05-05 19:54 | 45.95196 | 14.30489 | 35006 ft | 455 kts | 150° |
| 2026-05-05 19:55 | 45.90024 | 14.35766 | 35006 ft | 456 kts | 149° |
| 2026-05-05 19:55 | 45.84834 | 14.41051 | 35015 ft | 457 kts | 150° |
| 2026-05-05 19:56 | 45.79633 | 14.46332 | 35014 ft | 458 kts | 150° |
| 2026-05-05 19:56 | 45.74427 | 14.51608 | 35013 ft | 459 kts | 150° |
| 2026-05-05 19:57 | 45.69217 | 14.56876 | 35015 ft | 458 kts | 150° |
| 2026-05-05 19:57 | 45.64003 | 14.62136 | 35012 ft | 458 kts | 149° |
| 2026-05-05 19:58 | 45.58789 | 14.67384 | 35010 ft | 458 kts | 150° |
| 2026-05-05 19:58 | 45.53573 | 14.72621 | 35025 ft | 459 kts | 150° |
| 2026-05-05 19:59 | 45.48517 | 14.78248 | 35033 ft | 463 kts | 144° |
| 2026-05-05 19:59 | 45.43613 | 14.84235 | 35026 ft | 465 kts | 144° |
| 2026-05-05 20:00 | 45.38702 | 14.90237 | 35009 ft | 465 kts | 144° |
| 2026-05-05 20:00 | 45.33761 | 14.96201 | 35024 ft | 467 kts | 144° |
| 2026-05-05 20:01 | 45.28780 | 15.02166 | 35018 ft | 468 kts | 144° |
| 2026-05-05 20:01 | 45.23786 | 15.08124 | 35020 ft | 470 kts | 144° |
| 2026-05-05 20:02 | 45.18736 | 15.14138 | 35005 ft | 471 kts | 144° |
| 2026-05-05 20:02 | 45.13716 | 15.20103 | 34999 ft | 472 kts | 145° |
| 2026-05-05 20:03 | 45.08707 | 15.26040 | 35009 ft | 473 kts | 145° |
| 2026-05-05 20:03 | 45.03651 | 15.32019 | 35018 ft | 474 kts | 145° |
| 2026-05-05 20:04 | 44.98554 | 15.38032 | 35037 ft | 475 kts | 145° |
| 2026-05-05 20:04 | 44.93467 | 15.44018 | 35009 ft | 476 kts | 144° |
| 2026-05-05 20:05 | 44.88387 | 15.49985 | 35016 ft | 476 kts | 145° |
| 2026-05-05 20:05 | 44.83291 | 15.55954 | 35023 ft | 476 kts | 145° |
| 2026-05-05 20:06 | 44.78188 | 15.61918 | 35031 ft | 477 kts | 145° |
| 2026-05-05 20:06 | 44.73076 | 15.67877 | 35038 ft | 477 kts | 145° |
| 2026-05-05 20:07 | 44.67961 | 15.73826 | 35038 ft | 477 kts | 144° |
| 2026-05-05 20:07 | 44.62843 | 15.79765 | 35036 ft | 477 kts | 145° |
| 2026-05-05 20:08 | 44.57722 | 15.85693 | 35055 ft | 477 kts | 145° |
| 2026-05-05 20:08 | 44.52587 | 15.91623 | 35045 ft | 478 kts | 145° |
| 2026-05-05 20:09 | 44.47455 | 15.97535 | 35045 ft | 478 kts | 144° |
| 2026-05-05 20:09 | 44.42324 | 16.03433 | 35043 ft | 478 kts | 145° |
| 2026-05-05 20:10 | 44.37141 | 16.09376 | 35062 ft | 478 kts | 145° |
| 2026-05-05 20:10 | 44.31996 | 16.15263 | 35073 ft | 478 kts | 145° |
| 2026-05-05 20:11 | 44.26837 | 16.21150 | 35067 ft | 479 kts | 145° |
| 2026-05-05 20:11 | 44.21666 | 16.27039 | 35060 ft | 480 kts | 144° |
| 2026-05-05 20:12 | 44.16485 | 16.32925 | 35070 ft | 480 kts | 145° |
| 2026-05-05 20:12 | 44.11303 | 16.38800 | 35080 ft | 480 kts | 145° |
| 2026-05-05 20:13 | 44.06119 | 16.44664 | 35077 ft | 480 kts | 145° |
| 2026-05-05 20:13 | 44.00917 | 16.50492 | 35076 ft | 480 kts | 146° |
| 2026-05-05 20:14 | 43.95601 | 16.56114 | 35065 ft | 480 kts | 147° |
| 2026-05-05 20:14 | 43.90255 | 16.61671 | 35090 ft | 480 kts | 147° |
| 2026-05-05 20:15 | 43.84913 | 16.67248 | 35089 ft | 480 kts | 147° |
| 2026-05-05 20:15 | 43.79581 | 16.72832 | 35078 ft | 480 kts | 147° |
| 2026-05-05 20:16 | 43.74254 | 16.78409 | 35082 ft | 480 kts | 147° |
| 2026-05-05 20:16 | 43.68917 | 16.83983 | 35083 ft | 481 kts | 147° |
| 2026-05-05 20:17 | 43.63571 | 16.89552 | 35079 ft | 481 kts | 147° |
| 2026-05-05 20:17 | 43.58230 | 16.95102 | 35089 ft | 481 kts | 147° |
| 2026-05-05 20:18 | 43.52886 | 17.00643 | 35087 ft | 481 kts | 147° |
| 2026-05-05 20:18 | 43.47538 | 17.06175 | 35085 ft | 481 kts | 147° |
| 2026-05-05 20:19 | 43.42190 | 17.11695 | 35086 ft | 480 kts | 147° |
| 2026-05-05 20:19 | 43.36843 | 17.17201 | 35080 ft | 480 kts | 147° |
| 2026-05-05 20:20 | 43.31502 | 17.22689 | 35083 ft | 479 kts | 147° |
| 2026-05-05 20:20 | 43.26163 | 17.28162 | 35063 ft | 479 kts | 147° |
| 2026-05-05 20:21 | 43.21725 | 17.32702 | 35076 ft | 478 kts | 147° |
| 2026-05-05 20:21 | 43.16390 | 17.38148 | 35081 ft | 479 kts | 147° |
| 2026-05-05 20:22 | 43.11039 | 17.43598 | 35077 ft | 479 kts | 147° |
| 2026-05-05 20:22 | 43.05683 | 17.49043 | 35061 ft | 480 kts | 147° |
| 2026-05-05 20:23 | 43.00302 | 17.54499 | 35074 ft | 483 kts | 147° |
| 2026-05-05 20:23 | 42.94888 | 17.59977 | 35070 ft | 486 kts | 147° |
| 2026-05-05 20:24 | 42.89436 | 17.65481 | 35072 ft | 488 kts | 147° |
| 2026-05-05 20:24 | 42.83896 | 17.71062 | 35063 ft | 489 kts | 147° |
| 2026-05-05 20:25 | 42.78430 | 17.76557 | 35067 ft | 488 kts | 146° |
| 2026-05-05 20:25 | 42.72980 | 17.82023 | 35067 ft | 486 kts | 146° |
| 2026-05-05 20:26 | 42.67535 | 17.87471 | 35065 ft | 485 kts | 146° |
| 2026-05-05 20:26 | 42.62107 | 17.92890 | 35071 ft | 484 kts | 147° |
| 2026-05-05 20:27 | 42.56688 | 17.98288 | 35064 ft | 482 kts | 147° |
| 2026-05-05 20:27 | 42.51281 | 18.03662 | 35074 ft | 482 kts | 147° |
| 2026-05-05 20:28 | 42.45874 | 18.09024 | 35076 ft | 481 kts | 147° |
| 2026-05-05 20:28 | 42.40467 | 18.14375 | 35075 ft | 481 kts | 147° |
| 2026-05-05 20:29 | 42.35053 | 18.19720 | 35069 ft | 482 kts | 147° |
| 2026-05-05 20:29 | 42.29635 | 18.25059 | 35077 ft | 482 kts | 147° |
| 2026-05-05 20:30 | 42.24202 | 18.30401 | 35070 ft | 483 kts | 147° |
| 2026-05-05 20:30 | 42.18761 | 18.35739 | 35074 ft | 484 kts | 147° |
| 2026-05-05 20:31 | 42.13308 | 18.41078 | 35071 ft | 485 kts | 147° |
| 2026-05-05 20:31 | 42.07873 | 18.46388 | 35076 ft | 485 kts | 147° |
| 2026-05-05 20:32 | 42.02405 | 18.51719 | 35077 ft | 486 kts | 147° |
| 2026-05-05 20:32 | 41.96986 | 18.57169 | 35076 ft | 487 kts | 144° |
| 2026-05-05 20:33 | 41.91649 | 18.62772 | 35079 ft | 487 kts | 144° |
| 2026-05-05 20:33 | 41.86273 | 18.68400 | 35067 ft | 486 kts | 144° |
| 2026-05-05 20:34 | 41.80951 | 18.73921 | 35082 ft | 486 kts | 144° |
| 2026-05-05 20:34 | 41.75560 | 18.79485 | 35092 ft | 486 kts | 144° |
| 2026-05-05 20:35 | 41.70200 | 18.85004 | 35082 ft | 486 kts | 144° |
| 2026-05-05 20:35 | 41.64838 | 18.90517 | 35084 ft | 485 kts | 144° |
| 2026-05-05 20:36 | 41.59486 | 18.96008 | 35086 ft | 485 kts | 144° |
| 2026-05-05 20:36 | 41.54137 | 19.01485 | 35087 ft | 484 kts | 144° |
| 2026-05-05 20:37 | 41.48789 | 19.06950 | 35087 ft | 484 kts | 144° |
| 2026-05-05 20:37 | 41.43064 | 19.11524 | 35081 ft | 477 kts | 163° |
| 2026-05-05 20:38 | 41.36837 | 19.14510 | 35086 ft | 476 kts | 164° |
| 2026-05-05 20:38 | 41.30612 | 19.17449 | 34926 ft | 472 kts | 164° |
| 2026-05-05 20:38 | 41.27489 | 19.18948 | 34587 ft | 467 kts | 163° |
| 2026-05-05 20:39 | 41.24442 | 19.20423 | 34204 ft | 463 kts | 163° |
| 2026-05-05 20:39 | 41.21430 | 19.21887 | 33803 ft | 459 kts | 163° |
| 2026-05-05 20:39 | 41.18445 | 19.23339 | 33387 ft | 456 kts | 163° |
| 2026-05-05 20:39 | 41.15473 | 19.24784 | 32997 ft | 452 kts | 163° |
| 2026-05-05 20:40 | 41.12530 | 19.26213 | 32620 ft | 449 kts | 163° |
| 2026-05-05 20:40 | 41.09615 | 19.27627 | 32246 ft | 445 kts | 163° |
| 2026-05-05 20:40 | 41.06711 | 19.29034 | 31875 ft | 442 kts | 163° |
| 2026-05-05 20:40 | 41.03833 | 19.30426 | 31511 ft | 439 kts | 163° |
| 2026-05-05 20:41 | 41.00979 | 19.31805 | 31148 ft | 436 kts | 163° |
| 2026-05-05 20:41 | 40.98137 | 19.33177 | 30774 ft | 433 kts | 163° |
| 2026-05-05 20:41 | 40.95317 | 19.34537 | 30411 ft | 430 kts | 163° |
| 2026-05-05 20:41 | 40.92509 | 19.35890 | 30034 ft | 428 kts | 163° |
| 2026-05-05 20:42 | 40.89722 | 19.37232 | 29596 ft | 425 kts | 163° |
| 2026-05-05 20:42 | 40.86958 | 19.38563 | 29238 ft | 421 kts | 163° |
| 2026-05-05 20:42 | 40.84179 | 19.39899 | 28844 ft | 417 kts | 164° |
| 2026-05-05 20:42 | 40.81453 | 19.41208 | 28475 ft | 414 kts | 164° |
| 2026-05-05 20:43 | 40.78692 | 19.42533 | 28084 ft | 411 kts | 164° |
| 2026-05-05 20:43 | 40.76012 | 19.43817 | 27719 ft | 408 kts | 164° |
| 2026-05-05 20:43 | 40.73351 | 19.45092 | 27326 ft | 405 kts | 164° |
| 2026-05-05 20:43 | 40.70715 | 19.46354 | 26988 ft | 402 kts | 165° |
| 2026-05-05 20:44 | 40.68081 | 19.47613 | 26621 ft | 400 kts | 165° |
| 2026-05-05 20:44 | 40.65450 | 19.48869 | 26254 ft | 398 kts | 165° |
| 2026-05-05 20:44 | 40.62852 | 19.50110 | 25898 ft | 395 kts | 165° |
| 2026-05-05 20:44 | 40.60237 | 19.51358 | 25537 ft | 393 kts | 165° |
| 2026-05-05 20:45 | 40.55976 | 19.53387 | 24900 ft | 392 kts | 165° |
| 2026-05-05 20:45 | 40.53404 | 19.54607 | 24426 ft | 394 kts | 165° |
| 2026-05-05 20:45 | 40.50815 | 19.55832 | 23917 ft | 396 kts | 165° |
| 2026-05-05 20:46 | 40.48214 | 19.57063 | 23406 ft | 398 kts | 165° |
| 2026-05-05 20:46 | 40.45602 | 19.58298 | 22852 ft | 399 kts | 164° |
| 2026-05-05 20:46 | 40.42952 | 19.59552 | 22347 ft | 400 kts | 164° |
| 2026-05-05 20:46 | 40.40339 | 19.60788 | 21846 ft | 400 kts | 164° |
| 2026-05-05 20:47 | 40.37721 | 19.62026 | 21353 ft | 399 kts | 163° |
| 2026-05-05 20:47 | 40.35112 | 19.63258 | 20866 ft | 398 kts | 163° |
| 2026-05-05 20:47 | 40.32505 | 19.64488 | 20384 ft | 398 kts | 163° |
| 2026-05-05 20:47 | 40.29902 | 19.65715 | 19902 ft | 397 kts | 163° |
| 2026-05-05 20:48 | 40.27309 | 19.66936 | 19412 ft | 395 kts | 163° |
| 2026-05-05 20:48 | 40.24750 | 19.68142 | 18929 ft | 385 kts | 162° |
| 2026-05-05 20:48 | 40.22265 | 19.69312 | 18614 ft | 373 kts | 162° |
| 2026-05-05 20:48 | 40.19842 | 19.70453 | 18262 ft | 369 kts | 162° |
| 2026-05-05 20:49 | 40.17431 | 19.71583 | 17820 ft | 368 kts | 162° |
| 2026-05-05 20:49 | 40.15020 | 19.72713 | 17388 ft | 367 kts | 162° |
| 2026-05-05 20:49 | 40.12619 | 19.73837 | 16954 ft | 366 kts | 162° |
| 2026-05-05 20:49 | 40.10221 | 19.74959 | 16520 ft | 365 kts | 162° |
| 2026-05-05 20:50 | 40.07832 | 19.76077 | 16094 ft | 364 kts | 162° |
| 2026-05-05 20:50 | 40.05443 | 19.77194 | 15676 ft | 364 kts | 162° |
| 2026-05-05 20:50 | 40.03065 | 19.78306 | 15253 ft | 363 kts | 162° |
| 2026-05-05 20:50 | 40.00689 | 19.79416 | 14819 ft | 362 kts | 162° |
| 2026-05-05 20:51 | 39.98321 | 19.80522 | 14416 ft | 361 kts | 162° |
| 2026-05-05 20:51 | 39.95957 | 19.81625 | 13997 ft | 360 kts | 162° |
| 2026-05-05 20:51 | 39.93599 | 19.82723 | 13528 ft | 360 kts | 162° |
| 2026-05-05 20:51 | 39.91238 | 19.83816 | 13078 ft | 358 kts | 163° |
| 2026-05-05 20:52 | 39.88812 | 19.84428 | 12618 ft | 353 kts | 181° |
| 2026-05-05 20:52 | 39.86374 | 19.84282 | 12240 ft | 348 kts | 186° |
| 2026-05-05 20:52 | 39.83966 | 19.84065 | 11824 ft | 344 kts | 186° |
| 2026-05-05 20:52 | 39.81614 | 19.83856 | 11414 ft | 334 kts | 185° |
| 2026-05-05 20:53 | 39.79334 | 19.83666 | 11032 ft | 324 kts | 185° |
| 2026-05-05 20:53 | 39.77140 | 19.83495 | 10656 ft | 315 kts | 185° |
| 2026-05-05 20:53 | 39.74979 | 19.83332 | 10292 ft | 307 kts | 185° |
| 2026-05-05 20:53 | 39.72845 | 19.83176 | 9938 ft | 299 kts | 184° |
| 2026-05-05 20:54 | 39.70818 | 19.83030 | 9561 ft | 292 kts | 184° |
| 2026-05-05 20:54 | 39.68789 | 19.82884 | 9200 ft | 284 kts | 184° |
| 2026-05-05 20:54 | 39.66838 | 19.82745 | 8865 ft | 277 kts | 184° |
| 2026-05-05 20:54 | 39.64939 | 19.82609 | 8541 ft | 270 kts | 184° |
| 2026-05-05 20:55 | 39.63087 | 19.82477 | 8229 ft | 263 kts | 184° |
| 2026-05-05 20:55 | 39.61275 | 19.82350 | 7934 ft | 259 kts | 184° |
| 2026-05-05 20:55 | 39.59473 | 19.82226 | 7630 ft | 259 kts | 184° |
| 2026-05-05 20:55 | 39.57667 | 19.82101 | 7321 ft | 260 kts | 184° |
| 2026-05-05 20:56 | 39.55851 | 19.81978 | 6933 ft | 261 kts | 181° |
| 2026-05-05 20:56 | 39.54069 | 19.82229 | 6624 ft | 255 kts | 169° |
| 2026-05-05 20:56 | 39.52376 | 19.82698 | 6480 ft | 243 kts | 168° |
| 2026-05-05 20:56 | 39.50742 | 19.83174 | 6160 ft | 239 kts | 168° |
| 2026-05-05 20:57 | 39.49100 | 19.83660 | 5764 ft | 239 kts | 168° |
| 2026-05-05 20:57 | 39.47482 | 19.84146 | 5386 ft | 238 kts | 168° |
| 2026-05-05 20:57 | 39.45893 | 19.84629 | 5035 ft | 236 kts | 168° |
| 2026-05-05 20:57 | 39.44282 | 19.85125 | 4801 ft | 234 kts | 168° |
| 2026-05-05 20:58 | 39.42701 | 19.85617 | 4542 ft | 233 kts | 168° |
| 2026-05-05 20:58 | 39.41133 | 19.86139 | 4290 ft | 233 kts | 160° |
| 2026-05-05 20:58 | 39.39822 | 19.87347 | 4019 ft | 235 kts | 127° |
| 2026-05-05 20:58 | 39.39220 | 19.89277 | 3785 ft | 233 kts | 94° |
| 2026-05-05 20:59 | 39.39396 | 19.91305 | 3582 ft | 225 kts | 79° |
| 2026-05-05 20:59 | 39.39681 | 19.93261 | 3341 ft | 218 kts | 80° |
| 2026-05-05 20:59 | 39.39955 | 19.95161 | 3073 ft | 213 kts | 80° |
| 2026-05-05 20:59 | 39.40365 | 19.96946 | 2907 ft | 202 kts | 57° |
| 2026-05-05 21:00 | 39.41397 | 19.98041 | 2902 ft | 195 kts | 17° |
| 2026-05-05 21:00 | 39.42720 | 19.98059 | 2906 ft | 192 kts | 338° |
| 2026-05-05 21:00 | 39.43858 | 19.97259 | 2913 ft | 183 kts | 332° |
| 2026-05-05 21:00 | 39.44985 | 19.96544 | 2891 ft | 178 kts | 331° |
| 2026-05-05 21:01 | 39.46092 | 19.95841 | 2914 ft | 179 kts | 337° |
| 2026-05-05 21:01 | 39.47284 | 19.95283 | 2742 ft | 186 kts | 341° |
| 2026-05-05 21:01 | 39.48500 | 19.94791 | 2452 ft | 179 kts | 342° |
| 2026-05-05 21:01 | 39.49665 | 19.94353 | 2192 ft | 168 kts | 345° |
| 2026-05-05 21:02 | 39.50747 | 19.93980 | 1987 ft | 156 kts | 345° |
| 2026-05-05 21:02 | 39.51807 | 19.93578 | 1811 ft | 158 kts | 343° |
| 2026-05-05 21:02 | 39.52789 | 19.93207 | 1644 ft | 139 kts | 344° |
| 2026-05-05 21:02 | 39.53715 | 19.92910 | 1271 ft | 136 kts | 348° |
| 2026-05-05 21:03 | 39.54634 | 19.92666 | 964 ft | 135 kts | 349° |
| 2026-05-05 21:03 | 39.55604 | 19.92417 | 766 ft | 148 kts | 347° |
| 2026-05-05 21:03 | 39.56626 | 19.92117 | 627 ft | 152 kts | 348° |
| 2026-05-05 21:03 | 39.57674 | 19.91872 | 406 ft | 153 kts | 348° |
| 2026-05-05 21:04 | 39.58692 | 19.91605 | 155 ft | 146 kts | 348° |
| 2026-05-05 21:04 | 39.59670 | 19.91348 | 7 ft | 135 kts | 348° |
| 2026-05-05 21:04 | 39.60403 | 19.91160 | 9 ft | 76 kts | 348° |
| 2026-05-05 21:04 | 39.60771 | 19.91065 | 8 ft | 32 kts | 348° |
| 2026-05-05 21:05 | 39.60969 | 19.91015 | 8 ft | 17 kts | 349° |
| 2026-05-05 21:05 | 39.61013 | 19.91009 | 8 ft | 5 kts | 359° |
| 2026-05-05 21:05 | 39.61036 | 19.91042 | 9 ft | 6 kts | 54° |
| 2026-05-05 21:05 | 39.61058 | 19.91091 | 8 ft | 7 kts | 70° |
| 2026-05-05 21:06 | 39.61048 | 19.91115 | 8 ft | 4 kts | 143° |
| 2026-05-05 21:06 | 39.61023 | 19.91129 | 8 ft | 0 kts | 162° |
| 2026-05-05 21:06 | 39.61014 | 19.91133 | 8 ft | 3 kts | 162° |
| 2026-05-05 21:06 | 39.60993 | 19.91141 | 9 ft | 3 kts | 165° |
| 2026-05-05 21:07 | 39.60957 | 19.91149 | 9 ft | 11 kts | 171° |
| 2026-05-05 21:07 | 39.60858 | 19.91172 | 8 ft | 16 kts | 169° |
| 2026-05-05 21:07 | 39.60787 | 19.91190 | 8 ft | 13 kts | 168° |
| 2026-05-05 21:07 | 39.60756 | 19.91200 | 8 ft | 2 kts | 153° |
| 2026-05-05 21:08 | 39.60751 | 19.91220 | 8 ft | 2 kts | 102° |
| 2026-05-05 21:08 | 39.60753 | 19.91266 | 8 ft | 7 kts | 84° |
| 2026-05-05 21:08 | 39.60758 | 19.91296 | 9 ft | 2 kts | 76° |
| 2026-05-05 21:08 | 39.60765 | 19.91331 | 8 ft | 0 kts | 77° |